PWSweather.com
Personal Weather Stations
Station Observations
RAINWISE1
Rainwise Factory, Bar Harbor, ME 04609

Rainwise FactoryBar Harbor, ME 04609

Lat: 44.3897429696629, Lon: -68.2077813148499

Elevation: 29

Station Type: Rainwise MK-III

www.rainwise.com

High Low Average
Temperature 57.7°F14.3°F 41.8°F5.4°F 51.3°F10.7°F
Dew Point 53.5°F11.9°F 41.5°F5.3°F 48.5°F9.2°F
Winds 7.4 mph SE11.9 mph SE Calm Calm 2.9 mph 4.7 mph
Wind Gusts 13.6 mph21.9 mph -- 4.8 mph7.7 mph
Humidity 100% 77% 91%
Pressure 30.05 in1017.60 in 29.88 in1011.90 in -
Precipitation 0.00 in0.00 in - -
Hour Temp Dew Point Humidity Winds Wind Gusts Pressure Precip Precip Rate Daily Precip Total
12:04 AM 45.5°F7.5°C 44.4°F6.9°C 96% 0.4 mph NNE0.6 kmh NNE 1.0 mph1.6 kmh 29.95 in1014.2 mb 0.00 in0.0 mm 0.00 in0.0 mm 0.00 in0.0 mm
12:09 AM 45.3°F7.4°C 44.2°F6.8°C 96% 0.8 mph NNE1.3 kmh NNE 1.3 mph2.1 kmh 29.95 in1014.2 mb 0.00 in0.0 mm 0.00 in0.0 mm 0.00 in0.0 mm
12:14 AM 45.2°F7.3°C 43.9°F6.6°C 95% 0.4 mph NNE0.6 kmh NNE 1.0 mph1.6 kmh 29.95 in1014.2 mb 0.00 in0.0 mm 0.00 in0.0 mm 0.00 in0.0 mm
12:19 AM 44.9°F7.2°C 43.8°F6.6°C 96% 0.9 mph NNE1.4 kmh NNE 1.5 mph2.4 kmh 29.95 in1014.2 mb 0.00 in0.0 mm 0.00 in0.0 mm 0.00 in0.0 mm
12:24 AM 44.7°F7.1°C 43.9°F6.6°C 97% 1.2 mph NNE1.9 kmh NNE 1.5 mph2.4 kmh 29.95 in1014.2 mb 0.00 in0.0 mm 0.00 in0.0 mm 0.00 in0.0 mm
12:29 AM 44.6°F7.0°C 43.8°F6.6°C 97% 1.1 mph NNE1.8 kmh NNE 1.7 mph2.7 kmh 29.95 in1014.2 mb 0.00 in0.0 mm 0.00 in0.0 mm 0.00 in0.0 mm
12:34 AM 44.5°F6.9°C 43.7°F6.5°C 97% Calm Calm 0.3 mph0.5 kmh 29.95 in1014.2 mb 0.00 in0.0 mm 0.00 in0.0 mm 0.00 in0.0 mm
12:39 AM 44.5°F6.9°C 43.7°F6.5°C 97% Calm Calm -- 29.95 in1014.2 mb 0.00 in0.0 mm 0.00 in0.0 mm 0.00 in0.0 mm
12:44 AM 44.4°F6.9°C 43.6°F6.4°C 97% Calm Calm -- 29.95 in1014.2 mb 0.00 in0.0 mm 0.00 in0.0 mm 0.00 in0.0 mm
12:49 AM 44.2°F6.8°C 43.4°F6.3°C 97% 0.5 mph NNE0.8 kmh NNE 0.8 mph1.3 kmh 29.95 in1014.2 mb 0.00 in0.0 mm 0.00 in0.0 mm 0.00 in0.0 mm
12:54 AM 44.0°F6.7°C 43.2°F6.2°C 97% 1.3 mph NNE2.1 kmh NNE 1.4 mph2.3 kmh 29.95 in1014.2 mb 0.00 in0.0 mm 0.00 in0.0 mm 0.00 in0.0 mm
12:59 AM 43.8°F6.6°C 43.0°F6.1°C 97% 0.4 mph NNE0.6 kmh NNE 0.7 mph1.1 kmh 29.95 in1014.2 mb 0.00 in0.0 mm 0.00 in0.0 mm 0.00 in0.0 mm
01:04 AM 43.8°F6.6°C 43.0°F6.1°C 97% Calm Calm -- 29.96 in1014.6 mb 0.00 in0.0 mm 0.00 in0.0 mm 0.00 in0.0 mm
01:09 AM 43.8°F6.6°C 43.3°F6.3°C 98% Calm Calm -- 29.96 in1014.6 mb 0.00 in0.0 mm 0.00 in0.0 mm 0.00 in0.0 mm
01:14 AM 43.7°F6.5°C 43.2°F6.2°C 98% 0.6 mph NNE1.0 kmh NNE 1.2 mph1.9 kmh 29.96 in1014.6 mb 0.00 in0.0 mm 0.00 in0.0 mm 0.00 in0.0 mm
01:19 AM 43.7°F6.5°C 43.2°F6.2°C 98% 0.5 mph NNE0.8 kmh NNE 1.1 mph1.8 kmh 29.96 in1014.6 mb 0.00 in0.0 mm 0.00 in0.0 mm 0.00 in0.0 mm
01:24 AM 43.5°F6.4°C 43.0°F6.1°C 98% 1.2 mph NNE1.9 kmh NNE 1.7 mph2.7 kmh 29.96 in1014.6 mb 0.00 in0.0 mm 0.00 in0.0 mm 0.00 in0.0 mm
01:29 AM 43.3°F6.3°C 42.8°F6.0°C 98% Calm Calm -- 29.96 in1014.6 mb 0.00 in0.0 mm 0.00 in0.0 mm 0.00 in0.0 mm
01:34 AM 43.2°F6.2°C 42.7°F5.9°C 98% 1.1 mph NNE1.8 kmh NNE 1.4 mph2.3 kmh 29.96 in1014.6 mb 0.00 in0.0 mm 0.00 in0.0 mm 0.00 in0.0 mm
01:39 AM 43.2°F6.2°C 42.7°F5.9°C 98% Calm Calm -- 29.97 in1014.9 mb 0.00 in0.0 mm 0.00 in0.0 mm 0.00 in0.0 mm
01:44 AM 43.2°F6.2°C 42.7°F5.9°C 98% 0.5 mph NNE0.8 kmh NNE 1.2 mph1.9 kmh 29.97 in1014.9 mb 0.00 in0.0 mm 0.00 in0.0 mm 0.00 in0.0 mm
01:49 AM 43.1°F6.2°C 42.6°F5.9°C 98% 0.2 mph NNE0.3 kmh NNE 0.8 mph1.3 kmh 29.97 in1014.9 mb 0.00 in0.0 mm 0.00 in0.0 mm 0.00 in0.0 mm
01:54 AM 42.9°F6.1°C 42.4°F5.8°C 98% Calm Calm -- 29.97 in1014.9 mb 0.00 in0.0 mm 0.00 in0.0 mm 0.00 in0.0 mm
01:59 AM 42.7°F5.9°C 42.2°F5.7°C 98% Calm Calm -- 29.96 in1014.6 mb 0.00 in0.0 mm 0.00 in0.0 mm 0.00 in0.0 mm
02:04 AM 42.8°F6.0°C 42.0°F5.6°C 97% Calm Calm -- 29.96 in1014.6 mb 0.00 in0.0 mm 0.00 in0.0 mm 0.00 in0.0 mm
02:09 AM 42.7°F5.9°C 42.2°F5.7°C 98% 0.4 mph NNE0.6 kmh NNE 0.7 mph1.1 kmh 29.96 in1014.6 mb 0.00 in0.0 mm 0.00 in0.0 mm 0.00 in0.0 mm
02:14 AM 42.4°F5.8°C 41.9°F5.5°C 98% 1.4 mph NNE2.3 kmh NNE 1.7 mph2.7 kmh 29.96 in1014.6 mb 0.00 in0.0 mm 0.00 in0.0 mm 0.00 in0.0 mm
02:19 AM 42.2°F5.7°C 41.7°F5.4°C 98% 0.4 mph NNE0.6 kmh NNE 1.0 mph1.6 kmh 29.96 in1014.6 mb 0.00 in0.0 mm 0.00 in0.0 mm 0.00 in0.0 mm
02:24 AM 42.1°F5.6°C 41.6°F5.3°C 98% 1.4 mph NNE2.3 kmh NNE 1.8 mph2.9 kmh 29.96 in1014.6 mb 0.00 in0.0 mm 0.00 in0.0 mm 0.00 in0.0 mm
02:29 AM 42.1°F5.6°C 41.6°F5.3°C 98% 0.8 mph NNE1.3 kmh NNE 1.3 mph2.1 kmh 29.96 in1014.6 mb 0.00 in0.0 mm 0.00 in0.0 mm 0.00 in0.0 mm
02:34 AM 42.2°F5.7°C 41.9°F5.5°C 99% 1.8 mph N2.9 kmh N 2.3 mph3.7 kmh 29.96 in1014.6 mb 0.00 in0.0 mm 0.00 in0.0 mm 0.00 in0.0 mm
02:39 AM 42.1°F5.6°C 41.8°F5.4°C 99% 0.5 mph N0.8 kmh N 0.8 mph1.3 kmh 29.96 in1014.6 mb 0.00 in0.0 mm 0.00 in0.0 mm 0.00 in0.0 mm
02:44 AM 42.0°F5.6°C 41.7°F5.4°C 99% 0.4 mph N0.6 kmh N 0.7 mph1.1 kmh 29.96 in1014.6 mb 0.00 in0.0 mm 0.00 in0.0 mm 0.00 in0.0 mm
02:49 AM 42.0°F5.6°C 41.7°F5.4°C 99% 1.8 mph N2.9 kmh N 2.3 mph3.7 kmh 29.96 in1014.6 mb 0.00 in0.0 mm 0.00 in0.0 mm 0.00 in0.0 mm
02:54 AM 42.0°F5.6°C 41.7°F5.4°C 99% 0.8 mph N1.3 kmh N 1.2 mph1.9 kmh 29.96 in1014.6 mb 0.00 in0.0 mm 0.00 in0.0 mm 0.00 in0.0 mm
02:59 AM 41.8°F5.4°C 41.5°F5.3°C 99% 0.2 mph N0.3 kmh N 0.4 mph0.6 kmh 29.96 in1014.6 mb 0.00 in0.0 mm 0.00 in0.0 mm 0.00 in0.0 mm
03:04 AM 41.8°F5.4°C 41.5°F5.3°C 99% 1.8 mph N2.9 kmh N 2.2 mph3.5 kmh 29.96 in1014.6 mb 0.00 in0.0 mm 0.00 in0.0 mm 0.00 in0.0 mm
03:09 AM 42.0°F5.6°C 41.7°F5.4°C 99% 0.9 mph N1.4 kmh N 1.5 mph2.4 kmh 29.96 in1014.6 mb 0.00 in0.0 mm 0.00 in0.0 mm 0.00 in0.0 mm
03:14 AM 42.1°F5.6°C 41.6°F5.3°C 98% 1.2 mph N1.9 kmh N 1.8 mph2.9 kmh 29.95 in1014.2 mb 0.00 in0.0 mm 0.00 in0.0 mm 0.00 in0.0 mm
03:19 AM 42.2°F5.7°C 41.9°F5.5°C 99% Calm Calm 0.3 mph0.5 kmh 29.96 in1014.6 mb 0.00 in0.0 mm 0.00 in0.0 mm 0.00 in0.0 mm
03:24 AM 42.4°F5.8°C 42.1°F5.6°C 99% Calm Calm -- 29.95 in1014.2 mb 0.00 in0.0 mm 0.00 in0.0 mm 0.00 in0.0 mm
03:29 AM 42.6°F5.9°C 42.3°F5.7°C 99% Calm Calm -- 29.96 in1014.6 mb 0.00 in0.0 mm 0.00 in0.0 mm 0.00 in0.0 mm
03:34 AM 42.7°F5.9°C 42.4°F5.8°C 99% 0.2 mph N0.3 kmh N 0.6 mph1.0 kmh 29.96 in1014.6 mb 0.00 in0.0 mm 0.00 in0.0 mm 0.00 in0.0 mm
03:39 AM 42.8°F6.0°C 42.5°F5.8°C 99% 0.3 mph SW0.5 kmh SW 0.9 mph1.4 kmh 29.96 in1014.6 mb 0.00 in0.0 mm 0.00 in0.0 mm 0.00 in0.0 mm
03:44 AM 43.2°F6.2°C 42.9°F6.1°C 99% Calm Calm -- 29.96 in1014.6 mb 0.00 in0.0 mm 0.00 in0.0 mm 0.00 in0.0 mm
03:49 AM 43.3°F6.3°C 43.0°F6.1°C 99% 0.7 mph NNW1.1 kmh NNW 1.1 mph1.8 kmh 29.96 in1014.6 mb 0.00 in0.0 mm 0.00 in0.0 mm 0.00 in0.0 mm
03:54 AM 42.9°F6.1°C 42.6°F5.9°C 99% 1.1 mph NNW1.8 kmh NNW 1.7 mph2.7 kmh 29.96 in1014.6 mb 0.00 in0.0 mm 0.00 in0.0 mm 0.00 in0.0 mm
03:59 AM 42.4°F5.8°C 42.1°F5.6°C 99% 0.2 mph NNW0.3 kmh NNW 0.7 mph1.1 kmh 29.97 in1014.9 mb 0.00 in0.0 mm 0.00 in0.0 mm 0.00 in0.0 mm
04:04 AM 42.3°F5.7°C 42.0°F5.6°C 99% 1.1 mph NNW1.8 kmh NNW 1.7 mph2.7 kmh 29.97 in1014.9 mb 0.00 in0.0 mm 0.00 in0.0 mm 0.00 in0.0 mm
04:09 AM 42.3°F5.7°C 42.0°F5.6°C 99% 1.6 mph NNW2.6 kmh NNW 2.0 mph3.2 kmh 29.97 in1014.9 mb 0.00 in0.0 mm 0.00 in0.0 mm 0.00 in0.0 mm
04:14 AM 42.2°F5.7°C 41.9°F5.5°C 99% 0.6 mph NNW1.0 kmh NNW 1.1 mph1.8 kmh 29.96 in1014.6 mb 0.00 in0.0 mm 0.00 in0.0 mm 0.00 in0.0 mm
04:19 AM 42.1°F5.6°C 41.8°F5.4°C 99% 0.7 mph NNW1.1 kmh NNW 1.5 mph2.4 kmh 29.96 in1014.6 mb 0.00 in0.0 mm 0.00 in0.0 mm 0.00 in0.0 mm
04:24 AM 42.6°F5.9°C 42.3°F5.7°C 99% 1.7 mph NNE2.7 kmh NNE 2.1 mph3.4 kmh 29.96 in1014.6 mb 0.00 in0.0 mm 0.00 in0.0 mm 0.00 in0.0 mm
04:29 AM 43.0°F6.1°C 42.7°F5.9°C 99% Calm Calm 0.3 mph0.5 kmh 29.97 in1014.9 mb 0.00 in0.0 mm 0.00 in0.0 mm 0.00 in0.0 mm
04:34 AM 42.8°F6.0°C 42.8°F6.0°C 100% 0.7 mph NNE1.1 kmh NNE 1.4 mph2.3 kmh 29.97 in1014.9 mb 0.00 in0.0 mm 0.00 in0.0 mm 0.00 in0.0 mm
04:39 AM 42.8°F6.0°C 42.5°F5.8°C 99% Calm Calm 0.3 mph0.5 kmh 29.97 in1014.9 mb 0.00 in0.0 mm 0.00 in0.0 mm 0.00 in0.0 mm
04:44 AM 42.7°F5.9°C 42.7°F5.9°C 100% 1.7 mph NNE2.7 kmh NNE 2.1 mph3.4 kmh 29.97 in1014.9 mb 0.00 in0.0 mm 0.00 in0.0 mm 0.00 in0.0 mm
04:49 AM 42.7°F5.9°C 42.7°F5.9°C 100% 0.7 mph NNE1.1 kmh NNE 1.0 mph1.6 kmh 29.97 in1014.9 mb 0.00 in0.0 mm 0.00 in0.0 mm 0.00 in0.0 mm
04:54 AM 42.7°F5.9°C 42.7°F5.9°C 100% 0.7 mph NNE1.1 kmh NNE 1.6 mph2.6 kmh 29.96 in1014.6 mb 0.00 in0.0 mm 0.00 in0.0 mm 0.00 in0.0 mm
04:59 AM 42.7°F5.9°C 42.7°F5.9°C 100% 1.5 mph NNE2.4 kmh NNE 1.9 mph3.1 kmh 29.96 in1014.6 mb 0.00 in0.0 mm 0.00 in0.0 mm 0.00 in0.0 mm
05:04 AM 42.7°F5.9°C 42.7°F5.9°C 100% 1.7 mph NNE2.7 kmh NNE 2.1 mph3.4 kmh 29.96 in1014.6 mb 0.00 in0.0 mm 0.00 in0.0 mm 0.00 in0.0 mm
05:09 AM 42.5°F5.8°C 42.5°F5.8°C 100% 1.1 mph NNE1.8 kmh NNE 1.6 mph2.6 kmh 29.96 in1014.6 mb 0.00 in0.0 mm 0.00 in0.0 mm 0.00 in0.0 mm
05:14 AM 42.2°F5.7°C 42.2°F5.7°C 100% Calm Calm -- 29.97 in1014.9 mb 0.00 in0.0 mm 0.00 in0.0 mm 0.00 in0.0 mm
05:19 AM 42.5°F5.8°C 42.5°F5.8°C 100% Calm Calm -- 29.97 in1014.9 mb 0.00 in0.0 mm 0.00 in0.0 mm 0.00 in0.0 mm
05:24 AM 42.7°F5.9°C 42.7°F5.9°C 100% Calm Calm -- 29.98 in1015.2 mb 0.00 in0.0 mm 0.00 in0.0 mm 0.00 in0.0 mm
05:29 AM 42.8°F6.0°C 42.8°F6.0°C 100% 1.0 mph NNE1.6 kmh NNE 1.7 mph2.7 kmh 29.98 in1015.2 mb 0.00 in0.0 mm 0.00 in0.0 mm 0.00 in0.0 mm
05:34 AM 43.1°F6.2°C 43.1°F6.2°C 100% 0.9 mph NNE1.4 kmh NNE 1.6 mph2.6 kmh 29.98 in1015.2 mb 0.00 in0.0 mm 0.00 in0.0 mm 0.00 in0.0 mm
05:39 AM 43.1°F6.2°C 43.1°F6.2°C 100% 1.6 mph NNE2.6 kmh NNE 1.9 mph3.1 kmh 29.98 in1015.2 mb 0.00 in0.0 mm 0.00 in0.0 mm 0.00 in0.0 mm
05:44 AM 43.3°F6.3°C 43.3°F6.3°C 100% 1.3 mph NNE2.1 kmh NNE 1.9 mph3.1 kmh 29.99 in1015.6 mb 0.00 in0.0 mm 0.00 in0.0 mm 0.00 in0.0 mm
05:49 AM 43.9°F6.6°C 43.9°F6.6°C 100% 1.0 mph NNE1.6 kmh NNE 1.5 mph2.4 kmh 29.99 in1015.6 mb 0.00 in0.0 mm 0.00 in0.0 mm 0.00 in0.0 mm
05:54 AM 44.5°F6.9°C 44.5°F6.9°C 100% 0.4 mph NNE0.6 kmh NNE 1.3 mph2.1 kmh 29.99 in1015.6 mb 0.00 in0.0 mm 0.00 in0.0 mm 0.00 in0.0 mm
05:59 AM 45.0°F7.2°C 45.0°F7.2°C 100% 1.4 mph NNE2.3 kmh NNE 2.1 mph3.4 kmh 29.99 in1015.6 mb 0.00 in0.0 mm 0.00 in0.0 mm 0.00 in0.0 mm
06:04 AM 45.4°F7.4°C 45.4°F7.4°C 100% 1.8 mph NNE2.9 kmh NNE 2.2 mph3.5 kmh 30.00 in1015.9 mb 0.00 in0.0 mm 0.00 in0.0 mm 0.00 in0.0 mm
06:09 AM 45.9°F7.7°C 45.9°F7.7°C 100% 2.3 mph NNE3.7 kmh NNE 3.2 mph5.1 kmh 30.00 in1015.9 mb 0.00 in0.0 mm 0.00 in0.0 mm 0.00 in0.0 mm
06:14 AM 46.5°F8.1°C 46.5°F8.1°C 100% 2.0 mph NNE3.2 kmh NNE 2.5 mph4.0 kmh 30.01 in1016.3 mb 0.00 in0.0 mm 0.00 in0.0 mm 0.00 in0.0 mm
06:19 AM 46.9°F8.3°C 46.9°F8.3°C 100% 1.3 mph NNE2.1 kmh NNE 1.9 mph3.1 kmh 30.01 in1016.3 mb 0.00 in0.0 mm 0.00 in0.0 mm 0.00 in0.0 mm
06:24 AM 47.1°F8.4°C 47.1°F8.4°C 100% 1.1 mph NE1.8 kmh NE 2.2 mph3.5 kmh 30.01 in1016.3 mb 0.00 in0.0 mm 0.00 in0.0 mm 0.00 in0.0 mm
06:29 AM 47.2°F8.4°C 47.2°F8.4°C 100% 1.5 mph NE2.4 kmh NE 2.5 mph4.0 kmh 30.01 in1016.3 mb 0.00 in0.0 mm 0.00 in0.0 mm 0.00 in0.0 mm
06:34 AM 47.5°F8.6°C 47.5°F8.6°C 100% 1.4 mph NE2.3 kmh NE 2.6 mph4.2 kmh 30.01 in1016.3 mb 0.00 in0.0 mm 0.00 in0.0 mm 0.00 in0.0 mm
06:39 AM 47.7°F8.7°C 47.7°F8.7°C 100% 1.1 mph NNE1.8 kmh NNE 2.1 mph3.4 kmh 30.01 in1016.3 mb 0.00 in0.0 mm 0.00 in0.0 mm 0.00 in0.0 mm
06:44 AM 48.1°F8.9°C 47.8°F8.8°C 99% 2.0 mph NE3.2 kmh NE 3.4 mph5.5 kmh 30.01 in1016.3 mb 0.00 in0.0 mm 0.00 in0.0 mm 0.00 in0.0 mm
06:49 AM 48.3°F9.1°C 48.3°F9.1°C 100% 2.3 mph NE3.7 kmh NE 3.2 mph5.1 kmh 30.01 in1016.3 mb 0.00 in0.0 mm 0.00 in0.0 mm 0.00 in0.0 mm
06:54 AM 48.7°F9.3°C 48.7°F9.3°C 100% 0.4 mph NE0.6 kmh NE 1.5 mph2.4 kmh 30.01 in1016.3 mb 0.00 in0.0 mm 0.00 in0.0 mm 0.00 in0.0 mm
06:59 AM 49.0°F9.4°C 49.0°F9.4°C 100% 0.4 mph ESE0.6 kmh ESE 0.9 mph1.4 kmh 30.02 in1016.6 mb 0.00 in0.0 mm 0.00 in0.0 mm 0.00 in0.0 mm
07:04 AM 49.2°F9.6°C 49.2°F9.6°C 100% 0.8 mph E1.3 kmh E 1.8 mph2.9 kmh 30.02 in1016.6 mb 0.00 in0.0 mm 0.00 in0.0 mm 0.00 in0.0 mm
07:09 AM 49.3°F9.6°C 49.3°F9.6°C 100% 1.6 mph ENE2.6 kmh ENE 2.7 mph4.3 kmh 30.02 in1016.6 mb 0.00 in0.0 mm 0.00 in0.0 mm 0.00 in0.0 mm
07:14 AM 49.7°F9.8°C 49.7°F9.8°C 100% 0.1 mph ENE0.2 kmh ENE 0.4 mph0.6 kmh 30.03 in1016.9 mb 0.00 in0.0 mm 0.00 in0.0 mm 0.00 in0.0 mm
07:19 AM 49.9°F9.9°C 49.6°F9.8°C 99% 1.7 mph ENE2.7 kmh ENE 3.1 mph5.0 kmh 30.02 in1016.6 mb 0.00 in0.0 mm 0.00 in0.0 mm 0.00 in0.0 mm
07:24 AM 50.3°F10.2°C 50.3°F10.2°C 100% 2.2 mph ENE3.5 kmh ENE 3.2 mph5.1 kmh 30.03 in1016.9 mb 0.00 in0.0 mm 0.00 in0.0 mm 0.00 in0.0 mm
07:29 AM 50.7°F10.4°C 50.7°F10.4°C 100% 0.9 mph ENE1.4 kmh ENE 2.3 mph3.7 kmh 30.03 in1016.9 mb 0.00 in0.0 mm 0.00 in0.0 mm 0.00 in0.0 mm
07:34 AM 51.0°F10.6°C 50.7°F10.4°C 99% 1.2 mph SE1.9 kmh SE 2.9 mph4.7 kmh 30.03 in1016.9 mb 0.00 in0.0 mm 0.00 in0.0 mm 0.00 in0.0 mm
07:39 AM 51.2°F10.7°C 50.7°F10.4°C 98% 2.7 mph ESE4.3 kmh ESE 4.6 mph7.4 kmh 30.03 in1016.9 mb 0.00 in0.0 mm 0.00 in0.0 mm 0.00 in0.0 mm
07:44 AM 51.3°F10.7°C 50.8°F10.4°C 98% 3.2 mph SSE5.1 kmh SSE 4.7 mph7.6 kmh 30.03 in1016.9 mb 0.00 in0.0 mm 0.00 in0.0 mm 0.00 in0.0 mm
07:49 AM 51.5°F10.8°C 51.0°F10.6°C 98% 2.9 mph SSE4.7 kmh SSE 4.4 mph7.1 kmh 30.04 in1017.3 mb 0.00 in0.0 mm 0.00 in0.0 mm 0.00 in0.0 mm
07:54 AM 51.6°F10.9°C 51.1°F10.6°C 98% 2.4 mph NE3.9 kmh NE 3.6 mph5.8 kmh 30.04 in1017.3 mb 0.00 in0.0 mm 0.00 in0.0 mm 0.00 in0.0 mm
07:59 AM 51.7°F10.9°C 50.9°F10.5°C 97% 2.3 mph SE3.7 kmh SE 4.5 mph7.2 kmh 30.04 in1017.3 mb 0.00 in0.0 mm 0.00 in0.0 mm 0.00 in0.0 mm
08:04 AM 51.7°F10.9°C 50.6°F10.3°C 96% 3.6 mph SE5.8 kmh SE 5.7 mph9.2 kmh 30.04 in1017.3 mb 0.00 in0.0 mm 0.00 in0.0 mm 0.00 in0.0 mm
08:09 AM 51.6°F10.9°C 50.2°F10.1°C 95% 4.1 mph SE6.6 kmh SE 7.3 mph11.7 kmh 30.04 in1017.3 mb 0.00 in0.0 mm 0.00 in0.0 mm 0.00 in0.0 mm
08:14 AM 51.6°F10.9°C 50.2°F10.1°C 95% 2.9 mph E4.7 kmh E 5.0 mph8.0 kmh 30.05 in1017.6 mb 0.00 in0.0 mm 0.00 in0.0 mm 0.00 in0.0 mm
08:19 AM 51.6°F10.9°C 50.2°F10.1°C 95% 2.9 mph ESE4.7 kmh ESE 5.0 mph8.0 kmh 30.05 in1017.6 mb 0.00 in0.0 mm 0.00 in0.0 mm 0.00 in0.0 mm
08:24 AM 51.7°F10.9°C 50.0°F10.0°C 94% 2.5 mph ESE4.0 kmh ESE 4.0 mph6.4 kmh 30.05 in1017.6 mb 0.00 in0.0 mm 0.00 in0.0 mm 0.00 in0.0 mm
08:29 AM 51.8°F11.0°C 50.1°F10.1°C 94% 1.8 mph ESE2.9 kmh ESE 2.9 mph4.7 kmh 30.05 in1017.6 mb 0.00 in0.0 mm 0.00 in0.0 mm 0.00 in0.0 mm
08:34 AM 52.1°F11.2°C 50.1°F10.1°C 93% 2.6 mph ESE4.2 kmh ESE 4.2 mph6.8 kmh 30.05 in1017.6 mb 0.00 in0.0 mm 0.00 in0.0 mm 0.00 in0.0 mm
08:39 AM 52.3°F11.3°C 50.3°F10.2°C 93% 1.9 mph SE3.1 kmh SE 3.7 mph6.0 kmh 30.04 in1017.3 mb 0.00 in0.0 mm 0.00 in0.0 mm 0.00 in0.0 mm
08:44 AM 52.7°F11.5°C 50.7°F10.4°C 93% 1.7 mph ENE2.7 kmh ENE 4.0 mph6.4 kmh 30.05 in1017.6 mb 0.00 in0.0 mm 0.00 in0.0 mm 0.00 in0.0 mm
08:49 AM 52.9°F11.6°C 50.9°F10.5°C 93% 1.3 mph ESE2.1 kmh ESE 2.7 mph4.3 kmh 30.04 in1017.3 mb 0.00 in0.0 mm 0.00 in0.0 mm 0.00 in0.0 mm
08:54 AM 53.2°F11.8°C 51.2°F10.7°C 93% 1.7 mph SE2.7 kmh SE 2.9 mph4.7 kmh 30.04 in1017.3 mb 0.00 in0.0 mm 0.00 in0.0 mm 0.00 in0.0 mm
08:59 AM 53.4°F11.9°C 51.1°F10.6°C 92% 3.2 mph SE5.1 kmh SE 5.1 mph8.2 kmh 30.04 in1017.3 mb 0.00 in0.0 mm 0.00 in0.0 mm 0.00 in0.0 mm
09:04 AM 53.3°F11.8°C 51.0°F10.6°C 92% 2.0 mph ESE3.2 kmh ESE 4.0 mph6.4 kmh 30.04 in1017.3 mb 0.00 in0.0 mm 0.00 in0.0 mm 0.00 in0.0 mm
09:09 AM 53.5°F11.9°C 51.2°F10.7°C 92% 2.5 mph SSE4.0 kmh SSE 4.7 mph7.6 kmh 30.04 in1017.3 mb 0.00 in0.0 mm 0.00 in0.0 mm 0.00 in0.0 mm
09:14 AM 53.6°F12.0°C 51.0°F10.6°C 91% 3.4 mph ESE5.5 kmh ESE 5.4 mph8.7 kmh 30.04 in1017.3 mb 0.00 in0.0 mm 0.00 in0.0 mm 0.00 in0.0 mm
09:19 AM 53.5°F11.9°C 50.9°F10.5°C 91% 3.4 mph SE5.5 kmh SE 5.9 mph9.5 kmh 30.04 in1017.3 mb 0.00 in0.0 mm 0.00 in0.0 mm 0.00 in0.0 mm
09:24 AM 53.7°F12.1°C 50.8°F10.4°C 90% 3.6 mph SE5.8 kmh SE 6.6 mph10.6 kmh 30.04 in1017.3 mb 0.00 in0.0 mm 0.00 in0.0 mm 0.00 in0.0 mm
09:29 AM 53.8°F12.1°C 50.9°F10.5°C 90% 2.7 mph ESE4.3 kmh ESE 4.8 mph7.7 kmh 30.04 in1017.3 mb 0.00 in0.0 mm 0.00 in0.0 mm 0.00 in0.0 mm
09:34 AM 54.1°F12.3°C 51.2°F10.7°C 90% 2.0 mph SE3.2 kmh SE 3.7 mph6.0 kmh 30.03 in1016.9 mb 0.00 in0.0 mm 0.00 in0.0 mm 0.00 in0.0 mm
09:39 AM 54.4°F12.4°C 51.5°F10.8°C 90% 2.8 mph ESE4.5 kmh ESE 5.5 mph8.9 kmh 30.04 in1017.3 mb 0.00 in0.0 mm 0.00 in0.0 mm 0.00 in0.0 mm
09:44 AM 54.5°F12.5°C 51.3°F10.7°C 89% 3.7 mph SE6.0 kmh SE 5.9 mph9.5 kmh 30.03 in1016.9 mb 0.00 in0.0 mm 0.00 in0.0 mm 0.00 in0.0 mm
09:49 AM 54.5°F12.5°C 50.7°F10.4°C 87% 3.0 mph SE4.8 kmh SE 4.8 mph7.7 kmh 30.04 in1017.3 mb 0.00 in0.0 mm 0.00 in0.0 mm 0.00 in0.0 mm
09:54 AM 54.6°F12.6°C 50.8°F10.4°C 87% 4.0 mph SSE6.4 kmh SSE 7.3 mph11.7 kmh 30.04 in1017.3 mb 0.00 in0.0 mm 0.00 in0.0 mm 0.00 in0.0 mm
09:59 AM 54.7°F12.6°C 50.9°F10.5°C 87% 4.8 mph SSE7.7 kmh SSE 7.6 mph12.2 kmh 30.04 in1017.3 mb 0.00 in0.0 mm 0.00 in0.0 mm 0.00 in0.0 mm
10:04 AM 54.7°F12.6°C 50.6°F10.3°C 86% 4.0 mph SE6.4 kmh SE 6.3 mph10.1 kmh 30.04 in1017.3 mb 0.00 in0.0 mm 0.00 in0.0 mm 0.00 in0.0 mm
10:09 AM 54.8°F12.7°C 50.7°F10.4°C 86% 3.1 mph S5.0 kmh S 5.6 mph9.0 kmh 30.04 in1017.3 mb 0.00 in0.0 mm 0.00 in0.0 mm 0.00 in0.0 mm
10:14 AM 55.1°F12.8°C 50.7°F10.4°C 85% 3.8 mph ESE6.1 kmh ESE 6.3 mph10.1 kmh 30.04 in1017.3 mb 0.00 in0.0 mm 0.00 in0.0 mm 0.00 in0.0 mm
10:19 AM 55.2°F12.9°C 50.8°F10.4°C 85% 4.4 mph SSE7.1 kmh SSE 7.3 mph11.7 kmh 30.04 in1017.3 mb 0.00 in0.0 mm 0.00 in0.0 mm 0.00 in0.0 mm
10:24 AM 55.2°F12.9°C 50.5°F10.3°C 84% 3.4 mph SE5.5 kmh SE 5.6 mph9.0 kmh 30.03 in1016.9 mb 0.00 in0.0 mm 0.00 in0.0 mm 0.00 in0.0 mm
10:29 AM 55.2°F12.9°C 50.5°F10.3°C 84% 5.2 mph SE8.4 kmh SE 8.5 mph13.7 kmh 30.04 in1017.3 mb 0.00 in0.0 mm 0.00 in0.0 mm 0.00 in0.0 mm
10:34 AM 55.3°F12.9°C 50.5°F10.3°C 84% 4.8 mph SE7.7 kmh SE 7.4 mph11.9 kmh 30.04 in1017.3 mb 0.00 in0.0 mm 0.00 in0.0 mm 0.00 in0.0 mm
10:39 AM 55.5°F13.1°C 50.4°F10.2°C 83% 3.9 mph SE6.3 kmh SE 6.6 mph10.6 kmh 30.04 in1017.3 mb 0.00 in0.0 mm 0.00 in0.0 mm 0.00 in0.0 mm
10:44 AM 55.6°F13.1°C 50.5°F10.3°C 83% 4.7 mph SE7.6 kmh SE 7.2 mph11.6 kmh 30.04 in1017.3 mb 0.00 in0.0 mm 0.00 in0.0 mm 0.00 in0.0 mm
10:49 AM 55.6°F13.1°C 50.5°F10.3°C 83% 4.8 mph SSE7.7 kmh SSE 8.2 mph13.2 kmh 30.04 in1017.3 mb 0.00 in0.0 mm 0.00 in0.0 mm 0.00 in0.0 mm
10:54 AM 55.5°F13.1°C 50.1°F10.1°C 82% 4.3 mph SE6.9 kmh SE 7.4 mph11.9 kmh 30.04 in1017.3 mb 0.00 in0.0 mm 0.00 in0.0 mm 0.00 in0.0 mm
10:59 AM 55.6°F13.1°C 50.2°F10.1°C 82% 4.4 mph SSE7.1 kmh SSE 6.8 mph10.9 kmh 30.04 in1017.3 mb 0.00 in0.0 mm 0.00 in0.0 mm 0.00 in0.0 mm
11:04 AM 55.6°F13.1°C 50.5°F10.3°C 83% 5.0 mph SSE8.0 kmh SSE 7.6 mph12.2 kmh 30.05 in1017.6 mb 0.00 in0.0 mm 0.00 in0.0 mm 0.00 in0.0 mm
11:09 AM 55.7°F13.2°C 50.6°F10.3°C 83% 4.1 mph SE6.6 kmh SE 6.1 mph9.8 kmh 30.05 in1017.6 mb 0.00 in0.0 mm 0.00 in0.0 mm 0.00 in0.0 mm
11:14 AM 55.6°F13.1°C 49.9°F9.9°C 81% 5.6 mph SSE9.0 kmh SSE 7.7 mph12.4 kmh 30.05 in1017.6 mb 0.00 in0.0 mm 0.00 in0.0 mm 0.00 in0.0 mm
11:19 AM 55.5°F13.1°C 49.8°F9.9°C 81% 5.1 mph S8.2 kmh S 7.0 mph11.3 kmh 30.05 in1017.6 mb 0.00 in0.0 mm 0.00 in0.0 mm 0.00 in0.0 mm
11:24 AM 55.5°F13.1°C 49.8°F9.9°C 81% 4.3 mph S6.9 kmh S 6.4 mph10.3 kmh 30.04 in1017.3 mb 0.00 in0.0 mm 0.00 in0.0 mm 0.00 in0.0 mm
11:29 AM 55.6°F13.1°C 50.2°F10.1°C 82% 3.7 mph SSE6.0 kmh SSE 5.4 mph8.7 kmh 30.04 in1017.3 mb 0.00 in0.0 mm 0.00 in0.0 mm 0.00 in0.0 mm
11:34 AM 55.8°F13.2°C 50.4°F10.2°C 82% 5.2 mph SE8.4 kmh SE 7.9 mph12.7 kmh 30.04 in1017.3 mb 0.00 in0.0 mm 0.00 in0.0 mm 0.00 in0.0 mm
11:39 AM 56.1°F13.4°C 50.7°F10.4°C 82% 3.3 mph SE5.3 kmh SE 6.0 mph9.7 kmh 30.03 in1016.9 mb 0.00 in0.0 mm 0.00 in0.0 mm 0.00 in0.0 mm
11:44 AM 56.4°F13.6°C 50.6°F10.3°C 81% 4.0 mph SE6.4 kmh SE 7.2 mph11.6 kmh 30.04 in1017.3 mb 0.00 in0.0 mm 0.00 in0.0 mm 0.00 in0.0 mm
11:49 AM 56.5°F13.6°C 50.7°F10.4°C 81% 4.3 mph SE6.9 kmh SE 7.2 mph11.6 kmh 30.03 in1016.9 mb 0.00 in0.0 mm 0.00 in0.0 mm 0.00 in0.0 mm
11:54 AM 56.5°F13.6°C 50.4°F10.2°C 80% 4.0 mph SSE6.4 kmh SSE 6.2 mph10.0 kmh 30.03 in1016.9 mb 0.00 in0.0 mm 0.00 in0.0 mm 0.00 in0.0 mm
11:59 AM 56.7°F13.7°C 50.3°F10.2°C 79% 3.7 mph SSE6.0 kmh SSE 5.0 mph8.0 kmh 30.03 in1016.9 mb 0.00 in0.0 mm 0.00 in0.0 mm 0.00 in0.0 mm
12:04 PM 56.6°F13.7°C 50.5°F10.3°C 80% 3.6 mph SSE5.8 kmh SSE 6.0 mph9.7 kmh 30.03 in1016.9 mb 0.00 in0.0 mm 0.00 in0.0 mm 0.00 in0.0 mm
12:09 PM 56.5°F13.6°C 50.4°F10.2°C 80% 4.3 mph SSE6.9 kmh SSE 6.3 mph10.1 kmh 30.03 in1016.9 mb 0.00 in0.0 mm 0.00 in0.0 mm 0.00 in0.0 mm
12:14 PM 56.2°F13.4°C 50.1°F10.1°C 80% 5.8 mph SE9.3 kmh SE 8.5 mph13.7 kmh 30.03 in1016.9 mb 0.00 in0.0 mm 0.00 in0.0 mm 0.00 in0.0 mm
12:19 PM 56.2°F13.4°C 50.1°F10.1°C 80% 4.1 mph SSE6.6 kmh SSE 6.3 mph10.1 kmh 30.02 in1016.6 mb 0.00 in0.0 mm 0.00 in0.0 mm 0.00 in0.0 mm
12:24 PM 56.2°F13.4°C 50.1°F10.1°C 80% 4.5 mph SE7.2 kmh SE 6.6 mph10.6 kmh 30.03 in1016.9 mb 0.00 in0.0 mm 0.00 in0.0 mm 0.00 in0.0 mm
12:29 PM 56.4°F13.6°C 50.3°F10.2°C 80% 4.3 mph SSE6.9 kmh SSE 6.6 mph10.6 kmh 30.03 in1016.9 mb 0.00 in0.0 mm 0.00 in0.0 mm 0.00 in0.0 mm
12:34 PM 56.6°F13.7°C 50.2°F10.1°C 79% 3.7 mph SE6.0 kmh SE 6.1 mph9.8 kmh 30.03 in1016.9 mb 0.00 in0.0 mm 0.00 in0.0 mm 0.00 in0.0 mm
12:39 PM 56.7°F13.7°C 50.3°F10.2°C 79% 4.4 mph SSE7.1 kmh SSE 7.1 mph11.4 kmh 30.03 in1016.9 mb 0.00 in0.0 mm 0.00 in0.0 mm 0.00 in0.0 mm
12:44 PM 56.6°F13.7°C 50.2°F10.1°C 79% 6.0 mph SSE9.7 kmh SSE 8.9 mph14.3 kmh 30.03 in1016.9 mb 0.00 in0.0 mm 0.00 in0.0 mm 0.00 in0.0 mm
12:49 PM 56.6°F13.7°C 49.8°F9.9°C 78% 4.3 mph SSE6.9 kmh SSE 7.4 mph11.9 kmh 30.03 in1016.9 mb 0.00 in0.0 mm 0.00 in0.0 mm 0.00 in0.0 mm
12:54 PM 56.7°F13.7°C 50.3°F10.2°C 79% 4.9 mph SSE7.9 kmh SSE 8.6 mph13.8 kmh 30.03 in1016.9 mb 0.00 in0.0 mm 0.00 in0.0 mm 0.00 in0.0 mm
12:59 PM 56.9°F13.8°C 50.5°F10.3°C 79% 4.2 mph SSE6.8 kmh SSE 6.3 mph10.1 kmh 30.03 in1016.9 mb 0.00 in0.0 mm 0.00 in0.0 mm 0.00 in0.0 mm
01:04 PM 57.0°F13.9°C 50.6°F10.3°C 79% 4.7 mph SE7.6 kmh SE 8.3 mph13.4 kmh 30.02 in1016.6 mb 0.00 in0.0 mm 0.00 in0.0 mm 0.00 in0.0 mm
01:09 PM 57.0°F13.9°C 50.2°F10.1°C 78% 5.6 mph SSE9.0 kmh SSE 8.4 mph13.5 kmh 30.02 in1016.6 mb 0.00 in0.0 mm 0.00 in0.0 mm 0.00 in0.0 mm
01:14 PM 57.0°F13.9°C 50.2°F10.1°C 78% 4.7 mph SE7.6 kmh SE 7.9 mph12.7 kmh 30.02 in1016.6 mb 0.00 in0.0 mm 0.00 in0.0 mm 0.00 in0.0 mm
01:19 PM 57.1°F13.9°C 50.3°F10.2°C 78% 3.8 mph SE6.1 kmh SE 6.5 mph10.5 kmh 30.01 in1016.3 mb 0.00 in0.0 mm 0.00 in0.0 mm 0.00 in0.0 mm
01:24 PM 57.1°F13.9°C 50.3°F10.2°C 78% 3.9 mph SE6.3 kmh SE 6.8 mph10.9 kmh 30.02 in1016.6 mb 0.00 in0.0 mm 0.00 in0.0 mm 0.00 in0.0 mm
01:29 PM 57.0°F13.9°C 50.2°F10.1°C 78% 4.5 mph SE7.2 kmh SE 6.4 mph10.3 kmh 30.01 in1016.3 mb 0.00 in0.0 mm 0.00 in0.0 mm 0.00 in0.0 mm
01:34 PM 56.7°F13.7°C 49.9°F9.9°C 78% 4.9 mph ESE7.9 kmh ESE 8.8 mph14.2 kmh 30.01 in1016.3 mb 0.00 in0.0 mm 0.00 in0.0 mm 0.00 in0.0 mm
01:39 PM 56.7°F13.7°C 49.9°F9.9°C 78% 3.0 mph SE4.8 kmh SE 5.3 mph8.5 kmh 30.01 in1016.3 mb 0.00 in0.0 mm 0.00 in0.0 mm 0.00 in0.0 mm
01:44 PM 56.7°F13.7°C 49.9°F9.9°C 78% 5.3 mph SSE8.5 kmh SSE 7.8 mph12.6 kmh 30.01 in1016.3 mb 0.00 in0.0 mm 0.00 in0.0 mm 0.00 in0.0 mm
01:49 PM 56.7°F13.7°C 49.9°F9.9°C 78% 3.7 mph SSE6.0 kmh SSE 5.4 mph8.7 kmh 30.01 in1016.3 mb 0.00 in0.0 mm 0.00 in0.0 mm 0.00 in0.0 mm
01:54 PM 56.7°F13.7°C 50.3°F10.2°C 79% 4.8 mph SSE7.7 kmh SSE 7.3 mph11.7 kmh 30.01 in1016.3 mb 0.00 in0.0 mm 0.00 in0.0 mm 0.00 in0.0 mm
01:59 PM 56.7°F13.7°C 49.9°F9.9°C 78% 4.7 mph SSE7.6 kmh SSE 7.4 mph11.9 kmh 30.01 in1016.3 mb 0.00 in0.0 mm 0.00 in0.0 mm 0.00 in0.0 mm
02:04 PM 56.7°F13.7°C 50.3°F10.2°C 79% 3.7 mph SE6.0 kmh SE 6.5 mph10.5 kmh 30.01 in1016.3 mb 0.00 in0.0 mm 0.00 in0.0 mm 0.00 in0.0 mm
02:09 PM 56.7°F13.7°C 50.3°F10.2°C 79% 2.7 mph E4.3 kmh E 4.6 mph7.4 kmh 30.01 in1016.3 mb 0.00 in0.0 mm 0.00 in0.0 mm 0.00 in0.0 mm
02:14 PM 57.0°F13.9°C 50.6°F10.3°C 79% 2.6 mph ESE4.2 kmh ESE 4.7 mph7.6 kmh 30.01 in1016.3 mb 0.00 in0.0 mm 0.00 in0.0 mm 0.00 in0.0 mm
02:19 PM 57.1°F13.9°C 50.3°F10.2°C 78% 3.5 mph SE5.6 kmh SE 5.2 mph8.4 kmh 30.01 in1016.3 mb 0.00 in0.0 mm 0.00 in0.0 mm 0.00 in0.0 mm
02:24 PM 57.2°F14.0°C 50.4°F10.2°C 78% 2.9 mph ESE4.7 kmh ESE 4.8 mph7.7 kmh 30.01 in1016.3 mb 0.00 in0.0 mm 0.00 in0.0 mm 0.00 in0.0 mm
02:29 PM 57.2°F14.0°C 50.4°F10.2°C 78% 3.0 mph ESE4.8 kmh ESE 5.9 mph9.5 kmh 30.01 in1016.3 mb 0.00 in0.0 mm 0.00 in0.0 mm 0.00 in0.0 mm
02:34 PM 57.1°F13.9°C 50.3°F10.2°C 78% 2.3 mph SE3.7 kmh SE 4.1 mph6.6 kmh 30.01 in1016.3 mb 0.00 in0.0 mm 0.00 in0.0 mm 0.00 in0.0 mm
02:39 PM 57.2°F14.0°C 50.4°F10.2°C 78% 3.0 mph ESE4.8 kmh ESE 5.2 mph8.4 kmh 30.00 in1015.9 mb 0.00 in0.0 mm 0.00 in0.0 mm 0.00 in0.0 mm
02:44 PM 57.2°F14.0°C 50.4°F10.2°C 78% 2.1 mph E3.4 kmh E 3.9 mph6.3 kmh 30.00 in1015.9 mb 0.00 in0.0 mm 0.00 in0.0 mm 0.00 in0.0 mm
02:49 PM 57.2°F14.0°C 50.4°F10.2°C 78% 2.5 mph E4.0 kmh E 4.1 mph6.6 kmh 30.00 in1015.9 mb 0.00 in0.0 mm 0.00 in0.0 mm 0.00 in0.0 mm
02:54 PM 57.2°F14.0°C 50.4°F10.2°C 78% 2.6 mph ESE4.2 kmh ESE 5.3 mph8.5 kmh 30.00 in1015.9 mb 0.00 in0.0 mm 0.00 in0.0 mm 0.00 in0.0 mm
02:59 PM 57.2°F14.0°C 50.1°F10.1°C 77% 2.2 mph SE3.5 kmh SE 4.2 mph6.8 kmh 30.00 in1015.9 mb 0.00 in0.0 mm 0.00 in0.0 mm 0.00 in0.0 mm
03:04 PM 57.5°F14.2°C 50.7°F10.4°C 78% 2.5 mph SE4.0 kmh SE 4.8 mph7.7 kmh 30.00 in1015.9 mb 0.00 in0.0 mm 0.00 in0.0 mm 0.00 in0.0 mm
03:09 PM 57.5°F14.2°C 50.7°F10.4°C 78% 3.5 mph SE5.6 kmh SE 5.8 mph9.3 kmh 30.00 in1015.9 mb 0.00 in0.0 mm 0.00 in0.0 mm 0.00 in0.0 mm
03:14 PM 57.5°F14.2°C 50.3°F10.2°C 77% 2.8 mph SSE4.5 kmh SSE 4.5 mph7.2 kmh 30.00 in1015.9 mb 0.00 in0.0 mm 0.00 in0.0 mm 0.00 in0.0 mm
03:19 PM 57.6°F14.2°C 50.4°F10.2°C 77% 2.4 mph SSE3.9 kmh SSE 5.0 mph8.0 kmh 29.99 in1015.6 mb 0.00 in0.0 mm 0.00 in0.0 mm 0.00 in0.0 mm
03:24 PM 57.7°F14.3°C 50.5°F10.3°C 77% 1.1 mph ESE1.8 kmh ESE 2.7 mph4.3 kmh 29.99 in1015.6 mb 0.00 in0.0 mm 0.00 in0.0 mm 0.00 in0.0 mm
03:29 PM 57.7°F14.3°C 51.2°F10.7°C 79% 2.8 mph ESE4.5 kmh ESE 4.5 mph7.2 kmh 29.98 in1015.2 mb 0.00 in0.0 mm 0.00 in0.0 mm 0.00 in0.0 mm
03:34 PM 57.7°F14.3°C 50.9°F10.5°C 78% 2.1 mph SE3.4 kmh SE 3.2 mph5.1 kmh 29.98 in1015.2 mb 0.00 in0.0 mm 0.00 in0.0 mm 0.00 in0.0 mm
03:39 PM 57.7°F14.3°C 51.2°F10.7°C 79% 2.6 mph SE4.2 kmh SE 4.0 mph6.4 kmh 29.98 in1015.2 mb 0.00 in0.0 mm 0.00 in0.0 mm 0.00 in0.0 mm
03:44 PM 57.6°F14.2°C 51.5°F10.8°C 80% 2.5 mph ESE4.0 kmh ESE 3.8 mph6.1 kmh 29.98 in1015.2 mb 0.00 in0.0 mm 0.00 in0.0 mm 0.00 in0.0 mm
03:49 PM 57.6°F14.2°C 51.5°F10.8°C 80% 2.8 mph SE4.5 kmh SE 4.3 mph6.9 kmh 29.98 in1015.2 mb 0.00 in0.0 mm 0.00 in0.0 mm 0.00 in0.0 mm
03:54 PM 57.5°F14.2°C 51.4°F10.8°C 80% 3.3 mph SSE5.3 kmh SSE 4.6 mph7.4 kmh 29.98 in1015.2 mb 0.00 in0.0 mm 0.00 in0.0 mm 0.00 in0.0 mm
03:59 PM 57.3°F14.1°C 51.2°F10.7°C 80% 4.5 mph SSE7.2 kmh SSE 6.7 mph10.8 kmh 29.98 in1015.2 mb 0.00 in0.0 mm 0.00 in0.0 mm 0.00 in0.0 mm
04:04 PM 56.9°F13.8°C 51.5°F10.8°C 82% 5.3 mph SSE8.5 kmh SSE 7.8 mph12.6 kmh 29.98 in1015.2 mb 0.00 in0.0 mm 0.00 in0.0 mm 0.00 in0.0 mm
04:09 PM 56.6°F13.7°C 51.2°F10.7°C 82% 4.2 mph SE6.8 kmh SE 6.1 mph9.8 kmh 29.98 in1015.2 mb 0.00 in0.0 mm 0.00 in0.0 mm 0.00 in0.0 mm
04:14 PM 56.5°F13.6°C 51.4°F10.8°C 83% 3.7 mph SSE6.0 kmh SSE 5.1 mph8.2 kmh 29.98 in1015.2 mb 0.00 in0.0 mm 0.00 in0.0 mm 0.00 in0.0 mm
04:19 PM 56.5°F13.6°C 51.7°F10.9°C 84% 3.0 mph SSE4.8 kmh SSE 4.2 mph6.8 kmh 29.98 in1015.2 mb 0.00 in0.0 mm 0.00 in0.0 mm 0.00 in0.0 mm
04:24 PM 56.4°F13.6°C 51.9°F11.1°C 85% 3.5 mph SSE5.6 kmh SSE 5.1 mph8.2 kmh 29.98 in1015.2 mb 0.00 in0.0 mm 0.00 in0.0 mm 0.00 in0.0 mm
04:29 PM 56.4°F13.6°C 51.9°F11.1°C 85% 2.5 mph S4.0 kmh S 3.5 mph5.6 kmh 29.98 in1015.2 mb 0.00 in0.0 mm 0.00 in0.0 mm 0.00 in0.0 mm
04:34 PM 56.3°F13.5°C 51.8°F11.0°C 85% 2.9 mph S4.7 kmh S 4.3 mph6.9 kmh 29.98 in1015.2 mb 0.00 in0.0 mm 0.00 in0.0 mm 0.00 in0.0 mm
04:39 PM 56.4°F13.6°C 52.6°F11.4°C 87% 3.0 mph S4.8 kmh S 4.4 mph7.1 kmh 29.98 in1015.2 mb 0.00 in0.0 mm 0.00 in0.0 mm 0.00 in0.0 mm
04:44 PM 56.4°F13.6°C 52.6°F11.4°C 87% 3.2 mph SSE5.1 kmh SSE 4.8 mph7.7 kmh 29.99 in1015.6 mb 0.00 in0.0 mm 0.00 in0.0 mm 0.00 in0.0 mm
04:49 PM 56.2°F13.4°C 52.4°F11.3°C 87% 2.6 mph SE4.2 kmh SE 3.7 mph6.0 kmh 29.98 in1015.2 mb 0.00 in0.0 mm 0.00 in0.0 mm 0.00 in0.0 mm
04:54 PM 56.1°F13.4°C 52.6°F11.4°C 88% 3.1 mph SSE5.0 kmh SSE 4.6 mph7.4 kmh 29.98 in1015.2 mb 0.00 in0.0 mm 0.00 in0.0 mm 0.00 in0.0 mm
04:59 PM 55.9°F13.3°C 52.4°F11.3°C 88% 4.1 mph SSE6.6 kmh SSE 5.8 mph9.3 kmh 29.97 in1014.9 mb 0.00 in0.0 mm 0.00 in0.0 mm 0.00 in0.0 mm
05:04 PM 55.7°F13.2°C 52.5°F11.4°C 89% 5.4 mph SSE8.7 kmh SSE 7.5 mph12.1 kmh 29.97 in1014.9 mb 0.00 in0.0 mm 0.00 in0.0 mm 0.00 in0.0 mm
05:09 PM 55.5°F13.1°C 52.3°F11.3°C 89% 3.5 mph SSE5.6 kmh SSE 5.2 mph8.4 kmh 29.97 in1014.9 mb 0.00 in0.0 mm 0.00 in0.0 mm 0.00 in0.0 mm
05:14 PM 55.2°F12.9°C 52.0°F11.1°C 89% 3.4 mph S5.5 kmh S 4.8 mph7.7 kmh 29.97 in1014.9 mb 0.00 in0.0 mm 0.00 in0.0 mm 0.01 in0.3 mm
05:19 PM 55.2°F12.9°C 52.3°F11.3°C 90% 3.6 mph SSW5.8 kmh SSW 5.0 mph8.0 kmh 29.97 in1014.9 mb 0.00 in0.0 mm 0.00 in0.0 mm 0.01 in0.3 mm
05:24 PM 55.1°F12.8°C 52.2°F11.2°C 90% 3.4 mph S5.5 kmh S 4.9 mph7.9 kmh 29.98 in1015.2 mb 0.00 in0.0 mm 0.00 in0.0 mm 0.01 in0.3 mm
05:29 PM 55.0°F12.8°C 52.4°F11.3°C 91% 2.9 mph S4.7 kmh S 4.1 mph6.6 kmh 29.97 in1014.9 mb 0.00 in0.0 mm 0.00 in0.0 mm 0.01 in0.3 mm
05:34 PM 54.9°F12.7°C 52.6°F11.4°C 92% 2.3 mph S3.7 kmh S 3.1 mph5.0 kmh 29.97 in1014.9 mb 0.00 in0.0 mm 0.00 in0.0 mm 0.01 in0.3 mm
05:39 PM 54.9°F12.7°C 52.6°F11.4°C 92% 3.3 mph SSW5.3 kmh SSW 4.2 mph6.8 kmh 29.97 in1014.9 mb 0.00 in0.0 mm 0.00 in0.0 mm 0.01 in0.3 mm
05:44 PM 54.7°F12.6°C 52.7°F11.5°C 93% 2.9 mph S4.7 kmh S 3.9 mph6.3 kmh 29.97 in1014.9 mb 0.00 in0.0 mm 0.00 in0.0 mm 0.01 in0.3 mm
05:49 PM 54.7°F12.6°C 52.7°F11.5°C 93% 2.8 mph S4.5 kmh S 3.7 mph6.0 kmh 29.97 in1014.9 mb 0.00 in0.0 mm 0.00 in0.0 mm 0.01 in0.3 mm
05:54 PM 54.7°F12.6°C 52.7°F11.5°C 93% 2.8 mph SSW4.5 kmh SSW 4.2 mph6.8 kmh 29.97 in1014.9 mb 0.00 in0.0 mm 0.00 in0.0 mm 0.01 in0.3 mm
05:59 PM 54.9°F12.7°C 53.2°F11.8°C 94% 2.7 mph S4.3 kmh S 3.6 mph5.8 kmh 29.97 in1014.9 mb 0.00 in0.0 mm 0.00 in0.0 mm 0.01 in0.3 mm
06:04 PM 54.9°F12.7°C 53.2°F11.8°C 94% 2.9 mph S4.7 kmh S 4.1 mph6.6 kmh 29.97 in1014.9 mb 0.00 in0.0 mm 0.00 in0.0 mm 0.01 in0.3 mm
06:09 PM 54.9°F12.7°C 53.5°F11.9°C 95% 3.5 mph S5.6 kmh S 4.6 mph7.4 kmh 29.97 in1014.9 mb 0.00 in0.0 mm 0.00 in0.0 mm 0.01 in0.3 mm
06:14 PM 54.7°F12.6°C 53.3°F11.8°C 95% 3.9 mph S6.3 kmh S 5.7 mph9.2 kmh 29.96 in1014.6 mb 0.00 in0.0 mm 0.00 in0.0 mm 0.02 in0.5 mm
06:19 PM 54.6°F12.6°C 53.2°F11.8°C 95% 3.4 mph SSE5.5 kmh SSE 4.7 mph7.6 kmh 29.96 in1014.6 mb 0.00 in0.0 mm 0.00 in0.0 mm 0.02 in0.5 mm
06:24 PM 54.4°F12.4°C 53.0°F11.7°C 95% 4.2 mph S6.8 kmh S 6.0 mph9.7 kmh 29.96 in1014.6 mb 0.00 in0.0 mm 0.00 in0.0 mm 0.02 in0.5 mm
06:29 PM 54.2°F12.3°C 52.8°F11.6°C 95% 3.8 mph SSE6.1 kmh SSE 5.5 mph8.9 kmh 29.95 in1014.2 mb 0.00 in0.0 mm 0.00 in0.0 mm 0.02 in0.5 mm
06:34 PM 54.1°F12.3°C 52.7°F11.5°C 95% 2.7 mph S4.3 kmh S 4.2 mph6.8 kmh 29.95 in1014.2 mb 0.00 in0.0 mm 0.00 in0.0 mm 0.02 in0.5 mm
06:39 PM 54.0°F12.2°C 52.6°F11.4°C 95% 3.3 mph SSW5.3 kmh SSW 4.1 mph6.6 kmh 29.96 in1014.6 mb 0.00 in0.0 mm 0.00 in0.0 mm 0.02 in0.5 mm
06:44 PM 54.1°F12.3°C 52.7°F11.5°C 95% 3.2 mph SSW5.1 kmh SSW 4.2 mph6.8 kmh 29.95 in1014.2 mb 0.00 in0.0 mm 0.00 in0.0 mm 0.02 in0.5 mm
06:49 PM 54.1°F12.3°C 52.7°F11.5°C 95% 3.3 mph SSE5.3 kmh SSE 4.8 mph7.7 kmh 29.94 in1013.9 mb 0.00 in0.0 mm 0.00 in0.0 mm 0.02 in0.5 mm
06:54 PM 54.0°F12.2°C 52.6°F11.4°C 95% 3.2 mph SE5.1 kmh SE 4.4 mph7.1 kmh 29.94 in1013.9 mb 0.00 in0.0 mm 0.00 in0.0 mm 0.02 in0.5 mm
06:59 PM 53.9°F12.2°C 52.5°F11.4°C 95% 2.9 mph SE4.7 kmh SE 4.6 mph7.4 kmh 29.94 in1013.9 mb 0.00 in0.0 mm 0.00 in0.0 mm 0.02 in0.5 mm
07:04 PM 53.9°F12.2°C 52.5°F11.4°C 95% 4.6 mph SSE7.4 kmh SSE 7.5 mph12.1 kmh 29.94 in1013.9 mb 0.00 in0.0 mm 0.00 in0.0 mm 0.02 in0.5 mm
07:09 PM 54.0°F12.2°C 52.6°F11.4°C 95% 3.0 mph SSE4.8 kmh SSE 4.3 mph6.9 kmh 29.95 in1014.2 mb 0.00 in0.0 mm 0.00 in0.0 mm 0.02 in0.5 mm
07:14 PM 54.0°F12.2°C 52.6°F11.4°C 95% 3.1 mph SE5.0 kmh SE 5.3 mph8.5 kmh 29.95 in1014.2 mb 0.00 in0.0 mm 0.00 in0.0 mm 0.02 in0.5 mm
07:19 PM 54.1°F12.3°C 52.4°F11.3°C 94% 1.4 mph SE2.3 kmh SE 2.9 mph4.7 kmh 29.95 in1014.2 mb 0.00 in0.0 mm 0.00 in0.0 mm 0.02 in0.5 mm
07:24 PM 54.0°F12.2°C 52.3°F11.3°C 94% 1.8 mph SE2.9 kmh SE 3.4 mph5.5 kmh 29.94 in1013.9 mb 0.00 in0.0 mm 0.00 in0.0 mm 0.02 in0.5 mm
07:29 PM 53.9°F12.2°C 52.2°F11.2°C 94% 2.9 mph SSE4.7 kmh SSE 3.9 mph6.3 kmh 29.94 in1013.9 mb 0.00 in0.0 mm 0.00 in0.0 mm 0.02 in0.5 mm
07:34 PM 53.7°F12.1°C 52.0°F11.1°C 94% 2.8 mph SE4.5 kmh SE 3.9 mph6.3 kmh 29.93 in1013.5 mb 0.00 in0.0 mm 0.00 in0.0 mm 0.02 in0.5 mm
07:39 PM 53.7°F12.1°C 52.0°F11.1°C 94% 1.8 mph SE2.9 kmh SE 3.6 mph5.8 kmh 29.93 in1013.5 mb 0.00 in0.0 mm 0.00 in0.0 mm 0.02 in0.5 mm
07:44 PM 53.6°F12.0°C 51.9°F11.1°C 94% 2.6 mph SE4.2 kmh SE 4.1 mph6.6 kmh 29.93 in1013.5 mb 0.00 in0.0 mm 0.00 in0.0 mm 0.02 in0.5 mm
07:49 PM 53.6°F12.0°C 52.2°F11.2°C 95% 2.7 mph SE4.3 kmh SE 5.5 mph8.9 kmh 29.92 in1013.2 mb 0.00 in0.0 mm 0.00 in0.0 mm 0.02 in0.5 mm
07:54 PM 53.7°F12.1°C 52.3°F11.3°C 95% 3.0 mph SE4.8 kmh SE 5.3 mph8.5 kmh 29.92 in1013.2 mb 0.00 in0.0 mm 0.00 in0.0 mm 0.02 in0.5 mm
07:59 PM 53.7°F12.1°C 51.7°F10.9°C 93% 3.9 mph SE6.3 kmh SE 6.5 mph10.5 kmh 29.92 in1013.2 mb 0.00 in0.0 mm 0.00 in0.0 mm 0.02 in0.5 mm
08:04 PM 53.6°F12.0°C 51.9°F11.1°C 94% 3.5 mph SE5.6 kmh SE 6.1 mph9.8 kmh 29.91 in1012.9 mb 0.00 in0.0 mm 0.00 in0.0 mm 0.02 in0.5 mm
08:09 PM 53.6°F12.0°C 51.9°F11.1°C 94% 3.2 mph SE5.1 kmh SE 6.0 mph9.7 kmh 29.90 in1012.5 mb 0.00 in0.0 mm 0.00 in0.0 mm 0.02 in0.5 mm
08:14 PM 53.6°F12.0°C 51.9°F11.1°C 94% 5.1 mph E8.2 kmh E 9.4 mph15.1 kmh 29.90 in1012.5 mb 0.00 in0.0 mm 0.00 in0.0 mm 0.02 in0.5 mm
08:19 PM 53.6°F12.0°C 51.6°F10.9°C 93% 5.6 mph SE9.0 kmh SE 10.9 mph17.5 kmh 29.90 in1012.5 mb 0.00 in0.0 mm 0.00 in0.0 mm 0.02 in0.5 mm
08:24 PM 53.6°F12.0°C 51.6°F10.9°C 93% 5.7 mph SE9.2 kmh SE 11.0 mph17.7 kmh 29.90 in1012.5 mb 0.00 in0.0 mm 0.00 in0.0 mm 0.02 in0.5 mm
08:29 PM 53.5°F11.9°C 51.5°F10.8°C 93% 5.6 mph SE9.0 kmh SE 10.2 mph16.4 kmh 29.90 in1012.5 mb 0.00 in0.0 mm 0.00 in0.0 mm 0.02 in0.5 mm
08:34 PM 53.4°F11.9°C 51.1°F10.6°C 92% 3.2 mph SE5.1 kmh SE 5.6 mph9.0 kmh 29.91 in1012.9 mb 0.00 in0.0 mm 0.00 in0.0 mm 0.02 in0.5 mm
08:39 PM 53.3°F11.8°C 51.0°F10.6°C 92% 2.6 mph SE4.2 kmh SE 4.9 mph7.9 kmh 29.91 in1012.9 mb 0.00 in0.0 mm 0.00 in0.0 mm 0.02 in0.5 mm
08:44 PM 53.2°F11.8°C 50.6°F10.3°C 91% 5.4 mph SE8.7 kmh SE 9.3 mph15.0 kmh 29.91 in1012.9 mb 0.00 in0.0 mm 0.00 in0.0 mm 0.02 in0.5 mm
08:49 PM 53.3°F11.8°C 50.7°F10.4°C 91% 5.6 mph SE9.0 kmh SE 9.5 mph15.3 kmh 29.91 in1012.9 mb 0.00 in0.0 mm 0.00 in0.0 mm 0.02 in0.5 mm
08:54 PM 53.3°F11.8°C 50.4°F10.2°C 90% 4.9 mph SE7.9 kmh SE 8.2 mph13.2 kmh 29.91 in1012.9 mb 0.00 in0.0 mm 0.00 in0.0 mm 0.02 in0.5 mm
08:59 PM 53.4°F11.9°C 50.2°F10.1°C 89% 6.2 mph SE10.0 kmh SE 10.0 mph16.1 kmh 29.91 in1012.9 mb 0.00 in0.0 mm 0.00 in0.0 mm 0.02 in0.5 mm
09:04 PM 53.5°F11.9°C 50.0°F10.0°C 88% 6.6 mph ESE10.6 kmh ESE 10.7 mph17.2 kmh 29.91 in1012.9 mb 0.00 in0.0 mm 0.00 in0.0 mm 0.02 in0.5 mm
09:09 PM 53.5°F11.9°C 50.0°F10.0°C 88% 6.6 mph SE10.6 kmh SE 11.6 mph18.7 kmh 29.90 in1012.5 mb 0.00 in0.0 mm 0.00 in0.0 mm 0.02 in0.5 mm
09:14 PM 53.5°F11.9°C 49.4°F9.7°C 86% 5.6 mph ESE9.0 kmh ESE 11.0 mph17.7 kmh 29.90 in1012.5 mb 0.00 in0.0 mm 0.00 in0.0 mm 0.02 in0.5 mm
09:19 PM 53.6°F12.0°C 49.8°F9.9°C 87% 7.4 mph SE11.9 kmh SE 13.6 mph21.9 kmh 29.90 in1012.5 mb 0.00 in0.0 mm 0.00 in0.0 mm 0.02 in0.5 mm
09:24 PM 53.7°F12.1°C 49.6°F9.8°C 86% 6.2 mph SE10.0 kmh SE 10.1 mph16.3 kmh 29.91 in1012.9 mb 0.00 in0.0 mm 0.00 in0.0 mm 0.02 in0.5 mm
09:29 PM 54.0°F12.2°C 49.9°F9.9°C 86% 5.7 mph ESE9.2 kmh ESE 9.6 mph15.4 kmh 29.91 in1012.9 mb 0.00 in0.0 mm 0.00 in0.0 mm 0.02 in0.5 mm
09:34 PM 54.1°F12.3°C 50.0°F10.0°C 86% 6.4 mph ESE10.3 kmh ESE 12.4 mph20.0 kmh 29.91 in1012.9 mb 0.00 in0.0 mm 0.00 in0.0 mm 0.02 in0.5 mm
09:39 PM 54.0°F12.2°C 49.6°F9.8°C 85% 4.7 mph SE7.6 kmh SE 7.7 mph12.4 kmh 29.92 in1013.2 mb 0.00 in0.0 mm 0.00 in0.0 mm 0.02 in0.5 mm
09:44 PM 53.8°F12.1°C 49.4°F9.7°C 85% 5.7 mph SE9.2 kmh SE 10.3 mph16.6 kmh 29.92 in1013.2 mb 0.00 in0.0 mm 0.00 in0.0 mm 0.02 in0.5 mm
09:49 PM 53.7°F12.1°C 49.3°F9.6°C 85% 5.4 mph SE8.7 kmh SE 9.4 mph15.1 kmh 29.92 in1013.2 mb 0.00 in0.0 mm 0.00 in0.0 mm 0.02 in0.5 mm
09:54 PM 53.5°F11.9°C 49.1°F9.5°C 85% 4.0 mph SSE6.4 kmh SSE 8.1 mph13.0 kmh 29.92 in1013.2 mb 0.00 in0.0 mm 0.00 in0.0 mm 0.02 in0.5 mm
09:59 PM 53.2°F11.8°C 49.1°F9.5°C 86% 4.0 mph SSE6.4 kmh SSE 7.5 mph12.1 kmh 29.93 in1013.5 mb 0.00 in0.0 mm 0.00 in0.0 mm 0.02 in0.5 mm
10:04 PM 53.0°F11.7°C 48.9°F9.4°C 86% 4.1 mph SE6.6 kmh SE 7.3 mph11.7 kmh 29.93 in1013.5 mb 0.00 in0.0 mm 0.00 in0.0 mm 0.02 in0.5 mm
10:09 PM 52.7°F11.5°C 48.6°F9.2°C 86% 2.9 mph SE4.7 kmh SE 5.1 mph8.2 kmh 29.93 in1013.5 mb 0.00 in0.0 mm 0.00 in0.0 mm 0.02 in0.5 mm
10:14 PM 52.5°F11.4°C 48.4°F9.1°C 86% 5.8 mph SSE9.3 kmh SSE 9.6 mph15.4 kmh 29.93 in1013.5 mb 0.00 in0.0 mm 0.00 in0.0 mm 0.02 in0.5 mm
10:19 PM 52.2°F11.2°C 48.4°F9.1°C 87% 2.5 mph SSE4.0 kmh SSE 4.6 mph7.4 kmh 29.93 in1013.5 mb 0.00 in0.0 mm 0.00 in0.0 mm 0.02 in0.5 mm
10:24 PM 51.8°F11.0°C 48.1°F8.9°C 87% 4.5 mph SSE7.2 kmh SSE 8.9 mph14.3 kmh 29.93 in1013.5 mb 0.00 in0.0 mm 0.00 in0.0 mm 0.02 in0.5 mm
10:29 PM 51.7°F10.9°C 48.3°F9.1°C 88% 5.8 mph SE9.3 kmh SE 10.6 mph17.1 kmh 29.93 in1013.5 mb 0.00 in0.0 mm 0.00 in0.0 mm 0.02 in0.5 mm
10:34 PM 51.6°F10.9°C 47.9°F8.8°C 87% 4.5 mph E7.2 kmh E 8.5 mph13.7 kmh 29.92 in1013.2 mb 0.00 in0.0 mm 0.00 in0.0 mm 0.02 in0.5 mm
10:39 PM 51.3°F10.7°C 47.6°F8.7°C 87% 5.1 mph SE8.2 kmh SE 8.6 mph13.8 kmh 29.92 in1013.2 mb 0.00 in0.0 mm 0.00 in0.0 mm 0.02 in0.5 mm
10:44 PM 51.2°F10.7°C 47.5°F8.6°C 87% 4.2 mph SE6.8 kmh SE 7.4 mph11.9 kmh 29.92 in1013.2 mb 0.00 in0.0 mm 0.00 in0.0 mm 0.02 in0.5 mm
10:49 PM 51.1°F10.6°C 47.1°F8.4°C 86% 4.7 mph SE7.6 kmh SE 9.0 mph14.5 kmh 29.92 in1013.2 mb 0.00 in0.0 mm 0.00 in0.0 mm 0.02 in0.5 mm
10:54 PM 51.0°F10.6°C 47.3°F8.5°C 87% 4.6 mph ESE7.4 kmh ESE 8.5 mph13.7 kmh 29.92 in1013.2 mb 0.00 in0.0 mm 0.00 in0.0 mm 0.02 in0.5 mm
10:59 PM 50.8°F10.4°C 47.1°F8.4°C 87% 5.4 mph SE8.7 kmh SE 9.1 mph14.6 kmh 29.91 in1012.9 mb 0.00 in0.0 mm 0.00 in0.0 mm 0.02 in0.5 mm
11:04 PM 50.7°F10.4°C 47.0°F8.3°C 87% 7.4 mph ESE11.9 kmh ESE 12.7 mph20.4 kmh 29.90 in1012.5 mb 0.00 in0.0 mm 0.00 in0.0 mm 0.02 in0.5 mm
11:09 PM 50.5°F10.3°C 46.8°F8.2°C 87% 5.8 mph SE9.3 kmh SE 10.8 mph17.4 kmh 29.90 in1012.5 mb 0.00 in0.0 mm 0.00 in0.0 mm 0.02 in0.5 mm
11:14 PM 50.2°F10.1°C 46.5°F8.1°C 87% 6.3 mph SE10.1 kmh SE 12.8 mph20.6 kmh 29.90 in1012.5 mb 0.00 in0.0 mm 0.00 in0.0 mm 0.02 in0.5 mm
11:19 PM 50.0°F10.0°C 46.6°F8.1°C 88% 5.3 mph SE8.5 kmh SE 9.2 mph14.8 kmh 29.89 in1012.2 mb 0.00 in0.0 mm 0.00 in0.0 mm 0.02 in0.5 mm
11:24 PM 49.9°F9.9°C 46.5°F8.1°C 88% 6.4 mph ESE10.3 kmh ESE 10.8 mph17.4 kmh 29.90 in1012.5 mb 0.00 in0.0 mm 0.00 in0.0 mm 0.02 in0.5 mm
11:29 PM 49.7°F9.8°C 46.3°F7.9°C 88% 6.3 mph SE10.1 kmh SE 11.5 mph18.5 kmh 29.89 in1012.2 mb 0.00 in0.0 mm 0.00 in0.0 mm 0.03 in0.8 mm
11:34 PM 49.4°F9.7°C 46.6°F8.1°C 90% 4.5 mph ESE7.2 kmh ESE 7.2 mph11.6 kmh 29.90 in1012.5 mb 0.00 in0.0 mm 0.00 in0.0 mm 0.03 in0.8 mm
11:39 PM 49.2°F9.6°C 46.7°F8.2°C 91% 5.3 mph SE8.5 kmh SE 10.2 mph16.4 kmh 29.89 in1012.2 mb 0.00 in0.0 mm 0.00 in0.0 mm 0.03 in0.8 mm
11:44 PM 49.2°F9.6°C 46.4°F8.0°C 90% 5.3 mph SE8.5 kmh SE 8.9 mph14.3 kmh 29.90 in1012.5 mb 0.00 in0.0 mm 0.00 in0.0 mm 0.03 in0.8 mm
11:49 PM 49.2°F9.6°C 46.7°F8.2°C 91% 5.1 mph SE8.2 kmh SE 9.5 mph15.3 kmh 29.89 in1012.2 mb 0.00 in0.0 mm 0.00 in0.0 mm 0.03 in0.8 mm
11:54 PM 49.1°F9.5°C 46.9°F8.3°C 92% 7.0 mph ESE11.3 kmh ESE 11.5 mph18.5 kmh 29.88 in1011.9 mb 0.00 in0.0 mm 0.00 in0.0 mm 0.03 in0.8 mm